Reinbeck, IA (50669)

1:51 PM CDT on March 26, 2017 (GMT -0500)
Scout Creek | | Change Station

Elev 951 ft 42.34 °N, 92.55 °W | Updated 18 seconds ago

Overcast
Overcast
45.7 °F
Feels Like 46 °F
N
0.0
Wind Variable Wind from WNW

Today
High -- | Low -- °F
--% Chance of Precip.
Yesterday
High -- | Low -- °F
Precip. -- in
Pressure 29.88 in
Visibility 7.0 miles
Clouds Overcast 500 ft
Windchill 46 °F
Dew Point 45 °F
Humidity 98%
Rainfall 0.05 in
Snow Depth Not available.
7:02 AM 7:29 PM
Waning Crescent, 2% visible
METAR KALO 261754Z 34005KT 7SM OVC005 07/05 A2986 RMK AO2 SLP116 T00670050 10067 20039 58001
Pressure 29.88 in
Visibility 7.0 miles
Clouds Overcast 500 ft
Windchill 46 °F
Dew Point 45 °F
Humidity 98%
Rainfall 0.05 in
Snow Depth Not available.
7:02 AM 7:29 PM
Waning Crescent, 2% visible
METAR KALO 261754Z 34005KT 7SM OVC005 07/05 A2986 RMK AO2 SLP116 T00670050 10067 20039 58001

Get Severe Weather Alerts

Thanks for signing up!

Be on the lookout for a verification email in your inbox.

You'll start receiving the daily forecast at 8 AM.

×

10-Day Weather Forecast

Almanac

Astronomy

Mar. 26, 2017 Rise Set
Actual Time
Civil Twilight
Nautical Twilight
Astronomical Twilight
Moon
Length of Visible Light
Length of Day
Tomorrow will be .
, % of the Moon is Illuminated

Today's Extremes

State Highs State Lows

Community

WunderPhotos

Upload Photos

1,962,540 photos uploaded!

WunderBlog® & News

Nearby

Air Quality

  Air Quality AQ Index Pollutant
Not available.

Snow Depth

Station Depth Elevation

Earthquake Activity

City Distance Mag. Time & Date
Minimum magnitude displayed is 2.5.

Earthquake Activity

City Distance Mag. Time & Date
Minimum magnitude displayed is 2.5.

Coastal Water Temperatures

Place Temperature

Stations

Nearby Weather Stations

Station Location Temp. Windchill Dew Point Humidity Wind Precip. Elev Updated Type
                   

Watches & Warnings

There are currently no watches in effect.